Aeroporto :
LOGIN :

Iscrizione | Disclaimer

   EN    FR    IT 

 










Sommario :    VFR   VFR Marginale   IFR   IFR Intensivo   IFR Molto Intensivo
Visibilità : 
Base nubi : 
>= 8 km
>= 3000ft
5 / 8 km
1000 / 3000 ft
1500m / 5 km
500 / 1000 ft
800 / 1500m
200 / 500 ft
< 800m
< 200 ft
Simboli :   Temporali  Nebbia  Neve Forte  Precipitazioni Forti  Vento > 20 kt
SIGMETs :   Varie  Temporali  Ghiacco  Turbolenza  Onda orograficha  Ceneri Vulcaniche






- Altitudine del aeroporto : 16 ft
- Codice IATA : SDR


LEXJ - Santander Cantabria

ULTIMO METAR :
  • 190600Z 26005KT 230V290 9999 VCSH FEW014 SCT030TCU 17/15 Q1014

METARs OBSOLETI :
  • 190530Z 25004KT 220V280 9999 FEW014 FEW034TCU SCT050 16/14 Q1014
  • 190500Z 24005KT 200V270 9999 SCT014 BKN020 16/14 Q1013
  • 190430Z 23005KT 9999 BKN014 16/14 Q1013
  • 190400Z VRB01KT 9999 FEW023 SCT030 16/14 Q1013
  • 190330Z 24003KT 190V260 9999 SCT028 SCT045 16/14 Q1013
  • 190300Z AUTO 23006KT 9999 SCT029 BKN035 16/14 Q1013
  • 190230Z AUTO 23006KT 9999 FEW023 SCT030 BKN045 16/14 Q1013
  • 190200Z AUTO 24006KT 9999 BKN021 BKN030 BKN037 17/14 Q1014
  • 190130Z AUTO 23006KT 9999 BKN036 OVC044 17/15 Q1014
  • 190100Z AUTO 25007KT 9999 FEW016 OVC036 17/15 Q1014

TAF TAF LEXJ
Valido dal 19 a 03 ore il 20 a 03 ore UTC


190200Z 1903/2003 28009KT 9999 BKN030 BKN040 TX22/1913Z TN17/1905Z
PROB40
TEMPO 1903/1910 3000 SHRA SCT040TCU
TEMPO 1903/1910 BKN010
PROB30
TEMPO 1910/1919 1500 TSRA SCT040CB
PROB30
TEMPO 1919/2003 3000 RA
PROB40
TEMPO 1919/2003 BKN010



MetMap, La meteo Aeronautica in un colpo d'occhio ! - Copyright ORBIFLY Dicembre 2007 - Disclaimer

ORBIFLY MET'MAP TEAM :

Programmazione e sviluppo : Alexandra Zaïnal
Concezione : Baudouin d'Aumeries
Supporto tecnico e logistico : Manuel Goepfert
Aiuto : Marc-Olivier Méhu
Aiuto per la traduzione : Arnaldo La Scala




FONTI E CREDITI :

   NOAA